createdAt,value
2022-10-31T00:01:30.074Z,5.77
2022-10-31T00:03:59.253Z,5.17
2022-10-31T00:06:27.557Z,5.20
2022-10-31T00:08:56.751Z,5.20
2022-10-31T00:11:25.139Z,5.30
2022-10-31T00:13:53.142Z,5.60
2022-10-31T00:16:22.851Z,5.73
2022-10-31T00:18:51.519Z,5.17
2022-10-31T00:21:21.030Z,5.43
2022-10-31T00:23:48.887Z,5.50
2022-10-31T00:26:17.187Z,5.60
2022-10-31T00:28:45.175Z,5.40
2022-10-31T00:31:15.020Z,5.00
2022-10-31T00:33:43.355Z,5.60
2022-10-31T00:36:14.989Z,5.03
2022-10-31T00:38:45.359Z,5.23
2022-10-31T00:41:13.594Z,5.80
2022-10-31T00:43:41.441Z,5.23
2022-10-31T00:46:09.402Z,5.63
2022-10-31T00:48:37.214Z,5.33
2022-10-31T00:51:05.210Z,5.73
2022-10-31T00:53:33.049Z,5.67
2022-10-31T00:56:02.275Z,6.13
2022-10-31T00:58:30.251Z,6.60
2022-10-31T01:00:58.194Z,6.67
2022-10-31T01:03:27.648Z,6.83
2022-10-31T01:06:00.572Z,7.07
2022-10-31T01:08:29.151Z,8.20
2022-10-31T01:11:08.670Z,7.90
2022-10-31T01:13:37.161Z,8.67
2022-10-31T01:16:07.108Z,9.93
2022-10-31T01:18:35.918Z,9.87
2022-10-31T01:21:06.525Z,10.43
2022-10-31T01:23:34.747Z,11.37
2022-10-31T01:26:07.019Z,10.17
2022-10-31T01:28:36.060Z,10.57
2022-10-31T01:31:05.819Z,10.90
2022-10-31T01:33:34.316Z,11.03
2022-10-31T01:36:02.410Z,11.87
2022-10-31T01:38:30.336Z,10.70
2022-10-31T01:40:58.174Z,10.77
2022-10-31T01:43:44.548Z,11.27
2022-10-31T01:46:13.614Z,11.10
2022-10-31T01:48:43.499Z,10.70
2022-10-31T01:51:15.771Z,11.43
2022-10-31T01:53:45.586Z,13.07
2022-10-31T01:56:15.047Z,15.10
2022-10-31T01:58:45.038Z,15.00
2022-10-31T02:01:14.190Z,13.50
2022-10-31T02:03:42.331Z,14.27
2022-10-31T02:06:20.255Z,13.83
2022-10-31T02:08:48.414Z,13.47
2022-10-31T02:11:17.493Z,13.63
2022-10-31T02:13:46.808Z,13.37
2022-10-31T02:16:14.702Z,13.10
2022-10-31T02:18:42.744Z,11.87
2022-10-31T02:21:19.039Z,12.23
2022-10-31T02:24:12.727Z,11.90
2022-10-31T02:27:00.370Z,12.33
2022-10-31T02:30:05.037Z,12.53
2022-10-31T02:32:45.233Z,12.27
2022-10-31T02:35:23.864Z,11.97
2022-10-31T02:37:59.751Z,11.90
2022-10-31T02:40:31.183Z,11.27
2022-10-31T02:43:07.775Z,11.13
2022-10-31T02:45:44.091Z,12.27
2022-10-31T02:48:16.849Z,12.00
2022-10-31T02:50:52.365Z,12.07
2022-10-31T02:53:20.205Z,11.80
2022-10-31T02:56:00.675Z,11.50
2022-10-31T02:58:32.619Z,11.40
2022-10-31T03:01:24.266Z,11.50
2022-10-31T03:04:12.019Z,10.23
2022-10-31T03:06:47.344Z,10.20
2022-10-31T03:09:24.626Z,9.90
2022-10-31T03:11:59.833Z,10.20
2022-10-31T03:14:41.254Z,10.00
2022-10-31T03:17:13.427Z,11.17
2022-10-31T03:19:45.303Z,10.63
2022-10-31T03:22:19.351Z,11.53
2022-10-31T03:24:49.810Z,10.70
2022-10-31T03:27:23.415Z,11.13
2022-10-31T03:29:54.315Z,10.60
2022-10-31T03:32:26.204Z,10.70
2022-10-31T03:34:59.493Z,10.93
2022-10-31T03:37:29.844Z,11.33
2022-10-31T03:40:00.793Z,10.40
2022-10-31T03:42:32.674Z,9.80
2022-10-31T03:45:06.451Z,11.03
2022-10-31T03:47:35.070Z,10.47
2022-10-31T03:50:04.649Z,10.30
2022-10-31T03:52:39.542Z,10.93
2022-10-31T03:55:11.635Z,11.37
2022-10-31T03:57:47.080Z,11.37
2022-10-31T04:00:17.250Z,11.20
2022-10-31T04:02:51.698Z,11.13
2022-10-31T04:05:22.907Z,11.20
2022-10-31T04:07:55.422Z,10.90
2022-10-31T04:10:30.215Z,10.77
2022-10-31T04:13:05.771Z,10.67
2022-10-31T04:15:35.203Z,11.23
2022-10-31T04:18:06.065Z,12.40
2022-10-31T04:20:37.321Z,19.10
2022-10-31T04:23:08.843Z,17.90
2022-10-31T04:25:38.893Z,23.60
2022-10-31T04:28:06.763Z,25.70
2022-10-31T04:30:34.599Z,21.93
2022-10-31T04:33:02.728Z,21.30
2022-10-31T04:35:30.938Z,17.60
2022-10-31T04:38:00.192Z,16.50
2022-10-31T04:40:28.301Z,19.07
2022-10-31T04:42:56.138Z,16.60
2022-10-31T04:45:23.985Z,14.67
2022-10-31T04:47:51.991Z,12.30
2022-10-31T04:50:19.852Z,11.87
2022-10-31T04:52:48.602Z,12.50
2022-10-31T04:55:18.192Z,12.73
2022-10-31T04:57:48.044Z,11.53
2022-10-31T05:00:18.941Z,12.13
2022-10-31T05:02:47.546Z,11.30
2022-10-31T05:05:16.230Z,12.37
2022-10-31T05:07:45.574Z,12.33
2022-10-31T05:10:15.241Z,12.90
2022-10-31T05:12:49.895Z,12.63
2022-10-31T05:15:18.966Z,12.73
2022-10-31T05:17:46.900Z,13.63
2022-10-31T05:20:15.880Z,13.60
2022-10-31T05:22:47.972Z,13.63
2022-10-31T05:25:16.370Z,13.20
2022-10-31T05:27:46.335Z,13.30
2022-10-31T05:30:18.732Z,11.93
2022-10-31T05:32:47.806Z,12.17
2022-10-31T05:35:17.695Z,12.30
2022-10-31T05:37:45.654Z,12.97
2022-10-31T05:40:15.794Z,13.47
2022-10-31T05:42:44.817Z,13.63
2022-10-31T05:45:16.929Z,14.97
2022-10-31T05:47:51.588Z,13.73
2022-10-31T05:50:19.867Z,13.30
2022-10-31T05:52:47.717Z,13.87
2022-10-31T05:55:15.673Z,14.23
2022-10-31T05:57:43.502Z,12.47
2022-10-31T06:00:12.143Z,13.63
2022-10-31T06:02:41.318Z,13.17
2022-10-31T06:05:10.066Z,13.63
2022-10-31T06:07:38.355Z,12.97
2022-10-31T06:10:09.188Z,13.17
2022-10-31T06:12:38.685Z,12.43
2022-10-31T06:15:07.814Z,14.47
2022-10-31T06:17:36.263Z,16.17
2022-10-31T06:20:06.870Z,14.73
2022-10-31T06:22:34.737Z,15.90
2022-10-31T06:25:02.610Z,18.53
2022-10-31T06:27:30.686Z,18.67
2022-10-31T06:29:58.503Z,20.17
2022-10-31T06:32:26.379Z,18.40
2022-10-31T06:34:54.195Z,15.90
2022-10-31T06:37:23.691Z,18.73
2022-10-31T06:39:51.558Z,18.87
2022-10-31T06:42:19.522Z,18.80
2022-10-31T06:44:47.371Z,16.03
2022-10-31T06:47:15.203Z,14.85
2022-10-31T06:49:43.054Z,14.95
2022-10-31T06:52:10.895Z,12.88
2022-10-31T06:54:40.094Z,14.00
2022-10-31T06:57:07.932Z,14.25
2022-10-31T06:59:35.753Z,15.35
2022-10-31T07:02:03.723Z,17.33
2022-10-31T07:04:31.629Z,17.00
2022-10-31T07:06:59.436Z,17.55
2022-10-31T07:09:27.445Z,15.88
2022-10-31T07:11:56.660Z,15.95
2022-10-31T07:14:24.582Z,13.48
2022-10-31T07:16:52.970Z,13.98
2022-10-31T07:19:20.791Z,15.35
2022-10-31T07:21:48.644Z,15.55
2022-10-31T07:24:16.474Z,17.85
2022-10-31T07:26:46.911Z,16.05
2022-10-31T07:29:16.165Z,18.73
2022-10-31T07:31:45.077Z,17.75
2022-10-31T07:34:12.934Z,17.73
2022-10-31T07:36:40.742Z,17.38
2022-10-31T07:39:08.568Z,17.15
2022-10-31T07:41:36.371Z,17.55
2022-10-31T07:44:04.251Z,18.42
2022-10-31T07:46:34.183Z,19.15
2022-10-31T07:49:02.065Z,19.10
2022-10-31T07:51:30.001Z,17.73
2022-10-31T07:53:57.884Z,18.75
2022-10-31T07:56:25.698Z,20.45
2022-10-31T07:58:53.522Z,18.52
2022-10-31T08:01:21.352Z,19.08
2022-10-31T08:03:50.562Z,17.92
2022-10-31T08:06:18.654Z,17.77
2022-10-31T08:08:46.502Z,18.77
2022-10-31T08:11:14.333Z,18.10
2022-10-31T08:13:43.806Z,16.73
2022-10-31T08:16:11.654Z,16.20
2022-10-31T08:18:39.514Z,16.40
2022-10-31T08:21:08.887Z,18.05
2022-10-31T08:23:36.779Z,17.25
2022-10-31T08:26:04.611Z,18.20
2022-10-31T08:28:32.437Z,16.83
2022-10-31T08:31:00.851Z,16.27
2022-10-31T08:33:28.786Z,18.13
2022-10-31T08:35:56.651Z,18.20
2022-10-31T08:38:25.975Z,16.30
2022-10-31T08:40:53.813Z,15.90
2022-10-31T08:43:21.623Z,16.40
2022-10-31T08:45:51.312Z,15.40
2022-10-31T08:48:19.846Z,15.32
2022-10-31T08:50:47.900Z,14.82
2022-10-31T08:53:18.331Z,15.57
2022-10-31T08:55:48.815Z,14.88
2022-10-31T08:58:18.090Z,14.40
2022-10-31T09:00:47.312Z,15.18
2022-10-31T09:03:17.206Z,16.50
2022-10-31T09:05:46.684Z,18.05
2022-10-31T09:08:16.890Z,15.13
2022-10-31T09:10:46.947Z,14.55
2022-10-31T09:13:16.322Z,14.52
2022-10-31T09:15:45.927Z,14.18
2022-10-31T09:18:14.738Z,16.10
2022-10-31T09:20:44.106Z,14.68
2022-10-31T09:23:13.736Z,13.80
2022-10-31T09:25:45.034Z,15.30
2022-10-31T09:28:18.855Z,15.40
2022-10-31T09:30:49.024Z,13.70
2022-10-31T09:33:17.484Z,13.95
2022-10-31T09:35:45.349Z,13.93
2022-10-31T09:38:15.628Z,16.00
2022-10-31T09:40:45.766Z,13.80
2022-10-31T09:43:22.513Z,13.35
2022-10-31T09:46:03.026Z,15.90
2022-10-31T09:48:56.320Z,14.98
2022-10-31T09:51:30.429Z,12.77
2022-10-31T09:54:03.555Z,12.50
2022-10-31T09:56:34.123Z,12.52
2022-10-31T09:59:07.455Z,12.48
2022-10-31T10:01:50.683Z,12.65
2022-10-31T10:04:32.662Z,12.23
2022-10-31T10:07:04.886Z,14.68
2022-10-31T10:09:32.731Z,11.88
2022-10-31T10:12:11.467Z,10.70
2022-10-31T10:15:02.308Z,11.35
2022-10-31T10:17:40.880Z,10.38
2022-10-31T10:20:33.475Z,11.63
2022-10-31T10:23:25.839Z,12.35
2022-10-31T10:26:06.089Z,9.55
2022-10-31T10:28:40.928Z,11.05
2022-10-31T10:31:16.318Z,13.57
2022-10-31T10:33:57.627Z,10.02
2022-10-31T10:36:32.399Z,11.38
2022-10-31T10:39:04.419Z,10.20
2022-10-31T10:41:35.096Z,8.95
2022-10-31T10:44:02.410Z,8.65
2022-10-31T10:47:00.500Z,8.18
2022-10-31T10:49:39.174Z,8.98
2022-10-31T10:52:35.256Z,9.32
2022-10-31T10:55:12.763Z,7.07
2022-10-31T10:57:55.148Z,7.00
2022-10-31T11:00:24.926Z,7.65
2022-10-31T11:02:54.286Z,7.55
2022-10-31T11:05:32.211Z,6.28
2022-10-31T11:08:00.202Z,7.25
2022-10-31T11:10:28.192Z,8.38
2022-10-31T11:13:19.624Z,8.07
2022-10-31T11:15:57.532Z,6.03
2022-10-31T11:18:29.419Z,6.00
2022-10-31T11:20:59.375Z,8.63
2022-10-31T11:23:29.345Z,5.80
2022-10-31T11:25:59.358Z,7.28
2022-10-31T11:28:30.242Z,5.75
2022-10-31T11:30:59.830Z,5.35
2022-10-31T11:33:33.682Z,6.00
2022-10-31T11:36:03.248Z,5.80
2022-10-31T11:38:36.987Z,5.47
2022-10-31T11:41:12.731Z,8.23
2022-10-31T11:43:47.371Z,4.93
2022-10-31T11:46:22.116Z,5.38
2022-10-31T11:48:55.096Z,5.43
2022-10-31T11:51:24.282Z,5.68
2022-10-31T11:53:56.973Z,6.13
2022-10-31T11:56:28.589Z,6.57
2022-10-31T11:59:01.896Z,5.57
2022-10-31T12:01:32.257Z,5.38
2022-10-31T12:04:09.540Z,5.05
2022-10-31T12:06:39.584Z,6.38
2022-10-31T12:09:20.019Z,5.95
2022-10-31T12:11:55.725Z,5.22
2022-10-31T12:14:38.840Z,6.10
2022-10-31T12:17:15.023Z,6.13
2022-10-31T12:19:56.582Z,5.50
2022-10-31T12:22:35.828Z,5.30
2022-10-31T12:25:24.308Z,5.47
2022-10-31T12:28:06.266Z,5.65
2022-10-31T12:30:52.103Z,5.72
2022-10-31T12:33:36.704Z,5.53
2022-10-31T12:36:35.067Z,5.40
2022-10-31T12:39:19.063Z,5.68
2022-10-31T12:41:54.865Z,5.03
2022-10-31T12:44:46.732Z,4.97
2022-10-31T12:47:37.570Z,5.00
2022-10-31T12:50:21.574Z,5.57
2022-10-31T12:53:05.517Z,5.70
2022-10-31T12:55:43.407Z,5.35
2022-10-31T12:58:16.557Z,5.38
2022-10-31T13:00:50.367Z,5.95
2022-10-31T13:03:27.402Z,6.22
2022-10-31T13:05:59.517Z,5.25
2022-10-31T13:08:33.099Z,6.38
2022-10-31T13:11:08.745Z,5.25
2022-10-31T13:13:40.725Z,5.05
2022-10-31T13:16:15.343Z,7.20
2022-10-31T13:18:47.660Z,5.47
2022-10-31T13:21:23.090Z,5.50
2022-10-31T13:23:53.736Z,5.47
2022-10-31T13:26:35.228Z,5.00
2022-10-31T13:29:07.675Z,5.38
2022-10-31T13:31:35.753Z,4.85
2022-10-31T13:34:11.188Z,5.10
2022-10-31T13:36:44.452Z,4.72
2022-10-31T13:39:25.265Z,5.53
2022-10-31T13:41:59.237Z,4.95
2022-10-31T13:44:31.270Z,4.75
2022-10-31T13:47:01.223Z,4.88
2022-10-31T13:49:40.524Z,5.20
2022-10-31T13:52:16.678Z,5.40
2022-10-31T13:54:48.177Z,4.85
2022-10-31T13:57:20.327Z,5.10
2022-10-31T13:59:53.425Z,4.63
2022-10-31T14:02:28.784Z,5.00
2022-10-31T14:05:00.469Z,5.60
2022-10-31T14:07:30.251Z,5.90
2022-10-31T14:10:03.839Z,5.65
2022-10-31T14:12:35.546Z,5.50
2022-10-31T14:15:15.353Z,6.10
2022-10-31T14:17:49.992Z,5.43
2022-10-31T14:20:40.276Z,4.90
2022-10-31T14:23:30.947Z,4.85
2022-10-31T14:26:23.603Z,5.75
2022-10-31T14:28:52.917Z,5.47
2022-10-31T14:31:34.469Z,5.70
2022-10-31T14:34:03.485Z,4.85
2022-10-31T14:36:43.571Z,5.15
2022-10-31T14:39:17.834Z,6.30
2022-10-31T14:42:02.810Z,5.25
2022-10-31T14:45:01.809Z,7.70
2022-10-31T14:47:40.203Z,6.05
2022-10-31T14:50:39.757Z,7.18
2022-10-31T14:53:15.376Z,7.15
2022-10-31T14:55:50.525Z,7.47
2022-10-31T14:58:23.969Z,5.90
2022-10-31T15:00:56.324Z,7.07
2022-10-31T15:03:32.040Z,8.27
2022-10-31T15:06:04.195Z,8.70
2022-10-31T15:08:37.657Z,7.28
2022-10-31T15:11:13.083Z,7.57
2022-10-31T15:13:47.637Z,10.05
2022-10-31T15:16:18.603Z,6.68
2022-10-31T15:18:58.384Z,6.38
2022-10-31T15:21:29.279Z,6.30
2022-10-31T15:23:59.851Z,6.20
2022-10-31T15:26:41.512Z,5.15
2022-10-31T15:29:16.064Z,10.25
2022-10-31T15:31:52.571Z,6.70
2022-10-31T15:34:24.583Z,9.05
2022-10-31T15:36:52.534Z,9.48
2022-10-31T15:39:21.031Z,7.50
2022-10-31T15:41:54.509Z,7.88
2022-10-31T15:44:27.533Z,7.40
2022-10-31T15:46:58.471Z,7.25
2022-10-31T15:49:33.530Z,6.93
2022-10-31T15:52:08.410Z,6.40
2022-10-31T15:54:47.010Z,4.75
2022-10-31T15:57:15.603Z,6.10
2022-10-31T15:59:48.666Z,8.73
2022-10-31T16:02:21.534Z,9.07
2022-10-31T16:04:55.726Z,9.73
2022-10-31T16:07:24.655Z,9.40
2022-10-31T16:09:57.832Z,8.43
2022-10-31T16:12:27.915Z,8.13
2022-10-31T16:14:57.384Z,7.50
2022-10-31T16:17:28.118Z,7.28
2022-10-31T16:19:58.953Z,6.72
2022-10-31T16:22:30.423Z,6.78
2022-10-31T16:25:03.414Z,12.88
2022-10-31T16:27:34.194Z,9.63
2022-10-31T16:30:05.696Z,9.57
2022-10-31T16:32:36.294Z,9.83
2022-10-31T16:35:21.011Z,8.95
2022-10-31T16:37:48.886Z,8.90
2022-10-31T16:40:17.261Z,8.47
2022-10-31T16:42:46.152Z,10.20
2022-10-31T16:45:19.636Z,10.90
2022-10-31T16:47:47.611Z,9.37
2022-10-31T16:50:17.875Z,11.07
2022-10-31T16:53:08.343Z,10.40
2022-10-31T16:55:36.038Z,9.30
2022-10-31T16:58:04.490Z,9.47
2022-10-31T17:00:33.698Z,9.87
2022-10-31T17:03:02.286Z,10.37
2022-10-31T17:05:32.913Z,9.23
2022-10-31T17:08:01.067Z,10.27
2022-10-31T17:10:29.388Z,11.00
2022-10-31T17:13:00.033Z,9.03
2022-10-31T17:15:29.667Z,9.53
2022-10-31T17:17:59.181Z,10.57
2022-10-31T17:20:28.707Z,10.60
2022-10-31T17:22:59.118Z,11.30
2022-10-31T17:25:28.898Z,11.67
2022-10-31T17:27:57.074Z,12.70
2022-10-31T17:30:25.056Z,13.60
2022-10-31T17:32:53.043Z,13.40
2022-10-31T17:35:22.771Z,14.20
2022-10-31T17:37:51.146Z,13.53
2022-10-31T17:40:20.554Z,13.93
2022-10-31T17:42:52.256Z,13.67
2022-10-31T17:45:21.017Z,14.67
2022-10-31T17:47:49.732Z,13.80
2022-10-31T17:50:18.086Z,14.17
2022-10-31T17:52:47.763Z,13.77
2022-10-31T17:55:16.645Z,13.27
2022-10-31T17:57:45.046Z,13.83
2022-10-31T18:00:15.159Z,14.27
2022-10-31T18:02:43.224Z,17.13
2022-10-31T18:05:11.655Z,15.17
2022-10-31T18:07:39.745Z,14.20
2022-10-31T18:10:10.238Z,14.83
2022-10-31T18:12:38.610Z,14.77
2022-10-31T18:15:07.408Z,16.00
2022-10-31T18:17:36.954Z,13.33
2022-10-31T18:20:08.256Z,13.57
2022-10-31T18:22:36.084Z,15.73
2022-10-31T18:25:03.984Z,17.13
2022-10-31T18:27:33.254Z,17.27
2022-10-31T18:30:01.124Z,15.43
2022-10-31T18:32:28.950Z,14.80
2022-10-31T18:34:56.812Z,17.20
2022-10-31T18:37:24.663Z,16.70
2022-10-31T18:39:52.449Z,18.30
2022-10-31T18:42:20.337Z,17.57
2022-10-31T18:44:49.538Z,17.23
2022-10-31T18:47:17.698Z,17.70
2022-10-31T18:49:45.789Z,17.53
2022-10-31T18:52:13.652Z,15.80
2022-10-31T18:54:41.490Z,15.97
2022-10-31T18:57:09.350Z,16.70
2022-10-31T18:59:37.285Z,18.53
2022-10-31T19:02:06.655Z,20.77
2022-10-31T19:04:34.809Z,16.03
2022-10-31T19:07:02.873Z,19.13
2022-10-31T19:09:31.840Z,14.33
2022-10-31T19:11:59.669Z,16.20
2022-10-31T19:14:27.502Z,16.23
2022-10-31T19:16:58.318Z,14.27
2022-10-31T19:19:30.317Z,17.13
2022-10-31T19:21:58.224Z,16.90
2022-10-31T19:24:26.047Z,22.40
2022-10-31T19:26:53.883Z,18.17
2022-10-31T19:29:21.730Z,17.43
2022-10-31T19:31:49.809Z,16.13
2022-10-31T19:34:17.680Z,14.77
2022-10-31T19:36:46.904Z,21.17
2022-10-31T19:39:14.980Z,19.10
2022-10-31T19:41:42.853Z,19.17
2022-10-31T19:44:13.366Z,18.73
2022-10-31T19:46:53.451Z,22.47
2022-10-31T19:49:21.936Z,28.23
2022-10-31T19:51:51.152Z,20.23
2022-10-31T19:54:19.543Z,20.53
2022-10-31T19:56:47.415Z,19.60
2022-10-31T19:59:15.280Z,26.63
2022-10-31T20:01:43.323Z,37.13
2022-10-31T20:04:11.372Z,31.63
2022-10-31T20:06:41.902Z,23.93
2022-10-31T20:09:14.105Z,33.60
2022-10-31T20:11:43.708Z,31.43
2022-10-31T20:14:13.324Z,39.47
2022-10-31T20:16:41.654Z,34.70
2022-10-31T20:19:09.915Z,32.57
2022-10-31T20:21:39.562Z,30.93
2022-10-31T20:24:09.688Z,33.73
2022-10-31T20:26:41.287Z,30.40
2022-10-31T20:29:11.188Z,34.57
2022-10-31T20:31:39.948Z,36.77
2022-10-31T20:34:07.794Z,37.47
2022-10-31T20:36:36.715Z,35.07
2022-10-31T20:39:05.962Z,33.47
2022-10-31T20:41:33.852Z,43.90
2022-10-31T20:44:03.109Z,41.67
2022-10-31T20:46:31.129Z,34.63
2022-10-31T20:48:59.108Z,37.63
2022-10-31T20:51:29.074Z,41.27
2022-10-31T20:53:58.539Z,37.40
2022-10-31T20:56:27.805Z,31.33
2022-10-31T20:58:56.616Z,33.77
2022-10-31T21:01:27.710Z,37.90
2022-10-31T21:03:55.913Z,54.07
2022-10-31T21:06:24.256Z,54.70
2022-10-31T21:08:53.805Z,60.77
2022-10-31T21:11:23.765Z,53.13
2022-10-31T21:13:52.741Z,39.70
2022-10-31T21:16:22.194Z,41.77
2022-10-31T21:18:52.849Z,37.57
2022-10-31T21:21:29.182Z,36.33
2022-10-31T21:24:01.770Z,29.27
2022-10-31T21:26:33.415Z,28.33
2022-10-31T21:29:02.007Z,26.97
2022-10-31T21:31:30.101Z,41.60
2022-10-31T21:33:59.578Z,39.10
2022-10-31T21:36:27.728Z,41.83
2022-10-31T21:38:56.797Z,46.63
2022-10-31T21:41:26.353Z,44.07
2022-10-31T21:43:55.298Z,35.33
2022-10-31T21:46:24.917Z,26.30
2022-10-31T21:48:53.200Z,35.00
2022-10-31T21:51:24.442Z,38.57
2022-10-31T21:54:10.338Z,38.37
2022-10-31T21:56:38.705Z,38.43
2022-10-31T21:59:07.089Z,41.17
2022-10-31T22:01:36.560Z,56.20
2022-10-31T22:04:04.818Z,68.20
2022-10-31T22:06:34.306Z,66.67
2022-10-31T22:09:05.099Z,62.50
2022-10-31T22:11:33.099Z,61.90
2022-10-31T22:14:01.964Z,63.53
2022-10-31T22:16:31.083Z,60.23
2022-10-31T22:19:05.103Z,59.03
2022-10-31T22:21:43.958Z,54.50
2022-10-31T22:24:12.640Z,56.20
2022-10-31T22:26:41.117Z,50.90
2022-10-31T22:29:12.658Z,50.53
2022-10-31T22:31:42.494Z,48.10
2022-10-31T22:34:11.182Z,48.00
2022-10-31T22:36:40.960Z,46.73
2022-10-31T22:39:10.286Z,45.53
2022-10-31T22:41:38.190Z,45.50
2022-10-31T22:44:06.761Z,41.33
2022-10-31T22:46:36.494Z,42.87
2022-10-31T22:49:06.589Z,45.63
2022-10-31T22:51:36.246Z,46.43
2022-10-31T22:54:06.427Z,50.23
2022-10-31T22:56:35.704Z,43.63
2022-10-31T22:59:04.295Z,35.77
2022-10-31T23:01:35.045Z,39.63
2022-10-31T23:04:03.329Z,43.67
2022-10-31T23:06:33.031Z,51.40
2022-10-31T23:09:02.121Z,60.43
2022-10-31T23:11:34.999Z,84.60
2022-10-31T23:14:09.676Z,62.83
2022-10-31T23:16:39.132Z,60.67
2022-10-31T23:19:08.793Z,63.77
2022-10-31T23:21:56.326Z,60.13
2022-10-31T23:24:26.903Z,56.17
2022-10-31T23:27:07.768Z,48.10
2022-10-31T23:29:46.557Z,43.77
2022-10-31T23:32:18.443Z,41.87
2022-10-31T23:34:47.144Z,45.10
2022-10-31T23:37:16.468Z,39.53
2022-10-31T23:39:44.438Z,40.13
2022-10-31T23:42:14.158Z,41.07
2022-10-31T23:44:42.022Z,42.23
2022-10-31T23:47:10.095Z,42.00
2022-10-31T23:49:38.076Z,42.07
2022-10-31T23:52:07.041Z,50.93
2022-10-31T23:54:35.233Z,48.73
2022-10-31T23:57:03.578Z,59.83
2022-10-31T23:59:33.279Z,85.73
